sensor_id;sensor_type;location;lat;lon;timestamp;P1;durP1;ratioP1;P2;durP2;ratioP2
75885;SDS011;64561;44.018;10.144;2023-12-29T00:00:31;9.18;;;6.65;;
75885;SDS011;64561;44.018;10.144;2023-12-29T00:02:58;11.70;;;7.47;;
75885;SDS011;64561;44.018;10.144;2023-12-29T00:05:26;18.30;;;11.82;;
75885;SDS011;64561;44.018;10.144;2023-12-29T00:07:54;23.98;;;17.23;;
75885;SDS011;64561;44.018;10.144;2023-12-29T00:10:21;24.92;;;18.50;;
75885;SDS011;64561;44.018;10.144;2023-12-29T00:12:48;35.70;;;24.05;;
75885;SDS011;64561;44.018;10.144;2023-12-29T00:15:18;42.75;;;29.17;;
75885;SDS011;64561;44.018;10.144;2023-12-29T00:17:48;40.40;;;24.80;;
75885;SDS011;64561;44.018;10.144;2023-12-29T00:20:15;39.28;;;24.30;;
75885;SDS011;64561;44.018;10.144;2023-12-29T00:23:02;35.70;;;24.90;;
75885;SDS011;64561;44.018;10.144;2023-12-29T00:25:29;37.83;;;25.17;;
75885;SDS011;64561;44.018;10.144;2023-12-29T00:27:56;39.63;;;26.20;;
75885;SDS011;64561;44.018;10.144;2023-12-29T00:30:24;38.85;;;26.38;;
75885;SDS011;64561;44.018;10.144;2023-12-29T00:33:09;36.75;;;25.10;;
75885;SDS011;64561;44.018;10.144;2023-12-29T00:35:37;40.65;;;27.38;;
75885;SDS011;64561;44.018;10.144;2023-12-29T00:38:08;41.15;;;26.15;;
75885;SDS011;64561;44.018;10.144;2023-12-29T00:40:35;36.75;;;24.45;;
75885;SDS011;64561;44.018;10.144;2023-12-29T00:43:02;41.63;;;27.40;;
75885;SDS011;64561;44.018;10.144;2023-12-29T00:45:30;39.85;;;25.52;;
75885;SDS011;64561;44.018;10.144;2023-12-29T00:48:00;35.63;;;24.42;;
75885;SDS011;64561;44.018;10.144;2023-12-29T00:50:27;33.95;;;21.58;;
75885;SDS011;64561;44.018;10.144;2023-12-29T00:52:55;26.95;;;19.95;;
75885;SDS011;64561;44.018;10.144;2023-12-29T00:55:22;27.30;;;18.13;;
75885;SDS011;64561;44.018;10.144;2023-12-29T00:57:49;24.98;;;17.23;;
75885;SDS011;64561;44.018;10.144;2023-12-29T01:00:16;23.92;;;15.45;;
75885;SDS011;64561;44.018;10.144;2023-12-29T01:02:44;22.63;;;14.70;;
75885;SDS011;64561;44.018;10.144;2023-12-29T01:05:14;25.80;;;16.08;;
75885;SDS011;64561;44.018;10.144;2023-12-29T01:07:44;24.55;;;16.30;;
75885;SDS011;64561;44.018;10.144;2023-12-29T01:10:14;32.25;;;19.17;;
75885;SDS011;64561;44.018;10.144;2023-12-29T01:12:43;23.13;;;16.23;;
75885;SDS011;64561;44.018;10.144;2023-12-29T01:15:11;24.10;;;15.15;;
75885;SDS011;64561;44.018;10.144;2023-12-29T01:17:38;22.95;;;16.20;;
75885;SDS011;64561;44.018;10.144;2023-12-29T01:20:08;21.88;;;15.75;;
75885;SDS011;64561;44.018;10.144;2023-12-29T01:22:36;24.95;;;17.27;;
75885;SDS011;64561;44.018;10.144;2023-12-29T01:25:06;25.52;;;16.70;;
75885;SDS011;64561;44.018;10.144;2023-12-29T01:27:34;24.70;;;15.95;;
75885;SDS011;64561;44.018;10.144;2023-12-29T01:30:02;24.35;;;16.45;;
75885;SDS011;64561;44.018;10.144;2023-12-29T01:32:30;22.75;;;16.67;;
75885;SDS011;64561;44.018;10.144;2023-12-29T01:34:58;24.25;;;16.67;;
75885;SDS011;64561;44.018;10.144;2023-12-29T01:37:25;26.10;;;18.15;;
75885;SDS011;64561;44.018;10.144;2023-12-29T01:39:53;26.00;;;16.25;;
75885;SDS011;64561;44.018;10.144;2023-12-29T01:42:20;25.63;;;16.92;;
75885;SDS011;64561;44.018;10.144;2023-12-29T01:44:47;27.70;;;16.27;;
75885;SDS011;64561;44.018;10.144;2023-12-29T01:47:21;25.27;;;16.60;;
75885;SDS011;64561;44.018;10.144;2023-12-29T01:49:49;25.52;;;15.90;;
75885;SDS011;64561;44.018;10.144;2023-12-29T01:52:17;21.98;;;14.85;;
75885;SDS011;64561;44.018;10.144;2023-12-29T01:54:49;23.95;;;16.95;;
75885;SDS011;64561;44.018;10.144;2023-12-29T01:59:46;20.20;;;14.32;;
75885;SDS011;64561;44.018;10.144;2023-12-29T02:02:15;18.83;;;13.50;;
75885;SDS011;64561;44.018;10.144;2023-12-29T02:04:44;20.10;;;14.57;;
75885;SDS011;64561;44.018;10.144;2023-12-29T02:07:12;30.92;;;17.35;;
75885;SDS011;64561;44.018;10.144;2023-12-29T02:09:39;29.38;;;17.63;;
75885;SDS011;64561;44.018;10.144;2023-12-29T02:12:09;20.73;;;14.07;;
75885;SDS011;64561;44.018;10.144;2023-12-29T02:14:38;20.85;;;15.38;;
75885;SDS011;64561;44.018;10.144;2023-12-29T02:17:10;18.33;;;12.80;;
75885;SDS011;64561;44.018;10.144;2023-12-29T02:19:44;17.15;;;11.50;;
75885;SDS011;64561;44.018;10.144;2023-12-29T02:22:14;20.88;;;13.00;;
75885;SDS011;64561;44.018;10.144;2023-12-29T02:24:48;17.38;;;12.73;;
75885;SDS011;64561;44.018;10.144;2023-12-29T02:32:54;19.95;;;13.77;;
75885;SDS011;64561;44.018;10.144;2023-12-29T02:35:28;21.17;;;13.40;;
75885;SDS011;64561;44.018;10.144;2023-12-29T02:37:58;17.85;;;12.05;;
75885;SDS011;64561;44.018;10.144;2023-12-29T02:40:26;16.88;;;11.70;;
75885;SDS011;64561;44.018;10.144;2023-12-29T02:42:54;18.55;;;12.13;;
75885;SDS011;64561;44.018;10.144;2023-12-29T02:45:22;19.02;;;13.70;;
75885;SDS011;64561;44.018;10.144;2023-12-29T02:47:51;20.10;;;13.90;;
75885;SDS011;64561;44.018;10.144;2023-12-29T02:50:19;26.35;;;16.30;;
75885;SDS011;64561;44.018;10.144;2023-12-29T02:52:47;25.92;;;16.58;;
75885;SDS011;64561;44.018;10.144;2023-12-29T02:55:14;25.58;;;16.95;;
75885;SDS011;64561;44.018;10.144;2023-12-29T02:57:44;21.25;;;15.43;;
75885;SDS011;64561;44.018;10.144;2023-12-29T03:00:11;22.98;;;16.52;;
75885;SDS011;64561;44.018;10.144;2023-12-29T03:02:39;22.27;;;15.85;;
75885;SDS011;64561;44.018;10.144;2023-12-29T03:05:06;21.80;;;15.35;;
75885;SDS011;64561;44.018;10.144;2023-12-29T03:07:34;19.40;;;11.55;;
75885;SDS011;64561;44.018;10.144;2023-12-29T03:10:02;17.48;;;11.63;;
75885;SDS011;64561;44.018;10.144;2023-12-29T03:12:29;17.48;;;13.65;;
75885;SDS011;64561;44.018;10.144;2023-12-29T03:14:57;20.30;;;13.88;;
75885;SDS011;64561;44.018;10.144;2023-12-29T03:17:26;20.58;;;13.63;;
75885;SDS011;64561;44.018;10.144;2023-12-29T03:19:54;16.80;;;11.95;;
75885;SDS011;64561;44.018;10.144;2023-12-29T03:22:22;17.52;;;11.35;;
75885;SDS011;64561;44.018;10.144;2023-12-29T03:24:49;21.52;;;14.98;;
75885;SDS011;64561;44.018;10.144;2023-12-29T03:27:16;19.50;;;13.93;;
75885;SDS011;64561;44.018;10.144;2023-12-29T03:29:43;20.45;;;14.32;;
75885;SDS011;64561;44.018;10.144;2023-12-29T03:32:10;19.88;;;14.45;;
75885;SDS011;64561;44.018;10.144;2023-12-29T03:34:38;20.27;;;13.05;;
75885;SDS011;64561;44.018;10.144;2023-12-29T03:37:05;20.05;;;14.30;;
75885;SDS011;64561;44.018;10.144;2023-12-29T03:39:32;19.83;;;13.50;;
75885;SDS011;64561;44.018;10.144;2023-12-29T03:42:04;17.92;;;13.18;;
75885;SDS011;64561;44.018;10.144;2023-12-29T03:47:52;17.35;;;12.52;;
75885;SDS011;64561;44.018;10.144;2023-12-29T03:50:19;16.00;;;11.30;;
75885;SDS011;64561;44.018;10.144;2023-12-29T03:52:46;15.50;;;10.48;;
75885;SDS011;64561;44.018;10.144;2023-12-29T03:55:13;16.60;;;11.32;;
75885;SDS011;64561;44.018;10.144;2023-12-29T03:57:44;15.55;;;10.45;;
75885;SDS011;64561;44.018;10.144;2023-12-29T04:00:12;12.73;;;8.70;;
75885;SDS011;64561;44.018;10.144;2023-12-29T04:02:40;13.40;;;8.52;;
75885;SDS011;64561;44.018;10.144;2023-12-29T04:05:11;15.00;;;8.48;;
75885;SDS011;64561;44.018;10.144;2023-12-29T04:07:41;15.32;;;9.93;;
75885;SDS011;64561;44.018;10.144;2023-12-29T04:10:09;12.55;;;8.68;;
75885;SDS011;64561;44.018;10.144;2023-12-29T04:12:36;13.20;;;8.82;;
75885;SDS011;64561;44.018;10.144;2023-12-29T04:15:03;22.52;;;12.98;;
75885;SDS011;64561;44.018;10.144;2023-12-29T04:17:31;18.23;;;10.43;;
75885;SDS011;64561;44.018;10.144;2023-12-29T04:19:58;19.20;;;10.93;;
75885;SDS011;64561;44.018;10.144;2023-12-29T04:22:26;20.33;;;11.80;;
75885;SDS011;64561;44.018;10.144;2023-12-29T04:24:53;16.58;;;10.80;;
75885;SDS011;64561;44.018;10.144;2023-12-29T04:27:21;16.05;;;11.02;;
75885;SDS011;64561;44.018;10.144;2023-12-29T04:29:48;14.02;;;8.90;;
75885;SDS011;64561;44.018;10.144;2023-12-29T04:32:15;13.57;;;9.75;;
75885;SDS011;64561;44.018;10.144;2023-12-29T04:34:43;14.70;;;9.57;;
75885;SDS011;64561;44.018;10.144;2023-12-29T04:37:11;11.25;;;8.15;;
75885;SDS011;64561;44.018;10.144;2023-12-29T04:39:39;13.07;;;8.73;;
75885;SDS011;64561;44.018;10.144;2023-12-29T04:42:06;12.73;;;7.50;;
75885;SDS011;64561;44.018;10.144;2023-12-29T04:44:34;12.35;;;8.77;;
75885;SDS011;64561;44.018;10.144;2023-12-29T04:47:01;13.68;;;9.13;;
75885;SDS011;64561;44.018;10.144;2023-12-29T04:49:28;13.15;;;8.57;;
75885;SDS011;64561;44.018;10.144;2023-12-29T04:51:56;15.82;;;10.18;;
75885;SDS011;64561;44.018;10.144;2023-12-29T04:54:23;12.25;;;8.48;;
75885;SDS011;64561;44.018;10.144;2023-12-29T04:56:51;12.73;;;8.75;;
75885;SDS011;64561;44.018;10.144;2023-12-29T04:59:18;12.93;;;8.63;;
75885;SDS011;64561;44.018;10.144;2023-12-29T05:01:46;9.77;;;7.93;;
75885;SDS011;64561;44.018;10.144;2023-12-29T05:04:13;11.52;;;8.13;;
75885;SDS011;64561;44.018;10.144;2023-12-29T05:06:42;12.38;;;8.20;;
75885;SDS011;64561;44.018;10.144;2023-12-29T05:09:09;13.07;;;7.03;;
75885;SDS011;64561;44.018;10.144;2023-12-29T05:11:36;11.45;;;7.13;;
75885;SDS011;64561;44.018;10.144;2023-12-29T05:14:03;11.25;;;8.25;;
75885;SDS011;64561;44.018;10.144;2023-12-29T05:16:30;11.68;;;8.07;;
75885;SDS011;64561;44.018;10.144;2023-12-29T05:18:57;10.57;;;7.57;;
75885;SDS011;64561;44.018;10.144;2023-12-29T05:21:25;10.68;;;6.78;;
75885;SDS011;64561;44.018;10.144;2023-12-29T05:23:53;10.38;;;7.20;;
75885;SDS011;64561;44.018;10.144;2023-12-29T05:26:20;9.15;;;6.70;;
75885;SDS011;64561;44.018;10.144;2023-12-29T05:28:47;9.25;;;7.38;;
75885;SDS011;64561;44.018;10.144;2023-12-29T05:31:14;9.95;;;7.10;;
75885;SDS011;64561;44.018;10.144;2023-12-29T05:33:42;15.15;;;9.18;;
75885;SDS011;64561;44.018;10.144;2023-12-29T05:36:09;12.10;;;8.13;;
75885;SDS011;64561;44.018;10.144;2023-12-29T05:38:39;18.83;;;10.23;;
75885;SDS011;64561;44.018;10.144;2023-12-29T05:41:08;34.88;;;20.05;;
75885;SDS011;64561;44.018;10.144;2023-12-29T05:43:39;34.63;;;19.60;;
75885;SDS011;64561;44.018;10.144;2023-12-29T05:46:10;29.92;;;19.77;;
75885;SDS011;64561;44.018;10.144;2023-12-29T05:48:40;23.95;;;15.50;;
75885;SDS011;64561;44.018;10.144;2023-12-29T05:51:08;22.00;;;14.00;;
75885;SDS011;64561;44.018;10.144;2023-12-29T05:53:40;19.85;;;14.18;;
75885;SDS011;64561;44.018;10.144;2023-12-29T05:56:07;16.92;;;11.50;;
75885;SDS011;64561;44.018;10.144;2023-12-29T05:58:34;16.77;;;12.10;;
75885;SDS011;64561;44.018;10.144;2023-12-29T06:01:05;17.83;;;11.30;;
75885;SDS011;64561;44.018;10.144;2023-12-29T06:03:33;17.67;;;10.88;;
75885;SDS011;64561;44.018;10.144;2023-12-29T06:06:00;16.70;;;12.15;;
75885;SDS011;64561;44.018;10.144;2023-12-29T06:08:28;16.02;;;11.50;;
75885;SDS011;64561;44.018;10.144;2023-12-29T06:10:55;15.68;;;10.43;;
75885;SDS011;64561;44.018;10.144;2023-12-29T06:13:22;13.70;;;9.82;;
75885;SDS011;64561;44.018;10.144;2023-12-29T06:15:50;16.45;;;10.48;;
75885;SDS011;64561;44.018;10.144;2023-12-29T06:18:17;13.70;;;9.45;;
75885;SDS011;64561;44.018;10.144;2023-12-29T06:20:44;15.10;;;9.27;;
75885;SDS011;64561;44.018;10.144;2023-12-29T06:23:12;12.40;;;9.07;;
75885;SDS011;64561;44.018;10.144;2023-12-29T06:25:39;15.63;;;9.02;;
75885;SDS011;64561;44.018;10.144;2023-12-29T06:28:08;16.08;;;10.55;;
75885;SDS011;64561;44.018;10.144;2023-12-29T06:30:35;13.63;;;9.43;;
75885;SDS011;64561;44.018;10.144;2023-12-29T06:33:03;15.70;;;9.45;;
75885;SDS011;64561;44.018;10.144;2023-12-29T06:35:30;17.52;;;9.82;;
75885;SDS011;64561;44.018;10.144;2023-12-29T06:38:03;13.70;;;8.98;;
75885;SDS011;64561;44.018;10.144;2023-12-29T06:40:30;12.25;;;8.43;;
75885;SDS011;64561;44.018;10.144;2023-12-29T06:42:57;11.68;;;7.60;;
75885;SDS011;64561;44.018;10.144;2023-12-29T06:45:24;11.43;;;7.75;;
75885;SDS011;64561;44.018;10.144;2023-12-29T06:47:52;9.85;;;7.03;;
75885;SDS011;64561;44.018;10.144;2023-12-29T06:50:19;10.10;;;7.30;;
75885;SDS011;64561;44.018;10.144;2023-12-29T06:52:47;10.45;;;6.57;;
75885;SDS011;64561;44.018;10.144;2023-12-29T06:55:14;11.68;;;6.20;;
75885;SDS011;64561;44.018;10.144;2023-12-29T06:57:41;10.43;;;5.95;;
75885;SDS011;64561;44.018;10.144;2023-12-29T07:00:09;12.13;;;7.45;;
75885;SDS011;64561;44.018;10.144;2023-12-29T07:02:37;8.57;;;6.00;;
75885;SDS011;64561;44.018;10.144;2023-12-29T07:05:06;7.95;;;5.45;;
75885;SDS011;64561;44.018;10.144;2023-12-29T07:07:34;6.75;;;4.25;;
75885;SDS011;64561;44.018;10.144;2023-12-29T07:10:05;7.38;;;3.75;;
75885;SDS011;64561;44.018;10.144;2023-12-29T07:12:34;7.40;;;4.20;;
75885;SDS011;64561;44.018;10.144;2023-12-29T07:15:04;9.48;;;6.00;;
75885;SDS011;64561;44.018;10.144;2023-12-29T07:17:34;13.68;;;6.40;;
75885;SDS011;64561;44.018;10.144;2023-12-29T07:20:02;8.40;;;5.93;;
75885;SDS011;64561;44.018;10.144;2023-12-29T07:22:29;7.97;;;5.80;;
75885;SDS011;64561;44.018;10.144;2023-12-29T07:24:58;7.18;;;4.68;;
75885;SDS011;64561;44.018;10.144;2023-12-29T07:27:27;9.27;;;5.60;;
75885;SDS011;64561;44.018;10.144;2023-12-29T07:29:54;6.82;;;4.63;;
75885;SDS011;64561;44.018;10.144;2023-12-29T07:32:22;5.82;;;4.10;;
75885;SDS011;64561;44.018;10.144;2023-12-29T07:34:49;6.50;;;4.57;;
75885;SDS011;64561;44.018;10.144;2023-12-29T07:37:21;9.13;;;5.43;;
75885;SDS011;64561;44.018;10.144;2023-12-29T07:39:49;11.57;;;6.85;;
75885;SDS011;64561;44.018;10.144;2023-12-29T07:42:16;10.93;;;6.85;;
75885;SDS011;64561;44.018;10.144;2023-12-29T07:44:46;11.38;;;7.32;;
75885;SDS011;64561;44.018;10.144;2023-12-29T07:47:13;11.75;;;8.02;;
75885;SDS011;64561;44.018;10.144;2023-12-29T07:49:41;9.73;;;7.43;;
75885;SDS011;64561;44.018;10.144;2023-12-29T07:52:09;12.50;;;8.25;;
75885;SDS011;64561;44.018;10.144;2023-12-29T07:54:40;13.68;;;8.20;;
75885;SDS011;64561;44.018;10.144;2023-12-29T07:57:07;12.13;;;7.78;;
75885;SDS011;64561;44.018;10.144;2023-12-29T07:59:34;13.52;;;8.88;;
75885;SDS011;64561;44.018;10.144;2023-12-29T08:02:04;17.30;;;11.80;;
75885;SDS011;64561;44.018;10.144;2023-12-29T08:04:32;16.65;;;11.30;;
75885;SDS011;64561;44.018;10.144;2023-12-29T08:07:01;17.33;;;10.07;;
75885;SDS011;64561;44.018;10.144;2023-12-29T08:09:29;16.42;;;10.80;;
75885;SDS011;64561;44.018;10.144;2023-12-29T08:11:57;16.33;;;10.10;;
75885;SDS011;64561;44.018;10.144;2023-12-29T08:14:25;15.98;;;10.05;;
75885;SDS011;64561;44.018;10.144;2023-12-29T08:16:52;20.80;;;11.02;;
75885;SDS011;64561;44.018;10.144;2023-12-29T08:19:19;15.40;;;9.60;;
75885;SDS011;64561;44.018;10.144;2023-12-29T08:21:51;17.65;;;9.48;;
75885;SDS011;64561;44.018;10.144;2023-12-29T08:24:20;14.55;;;9.25;;
75885;SDS011;64561;44.018;10.144;2023-12-29T08:26:47;16.10;;;10.13;;
75885;SDS011;64561;44.018;10.144;2023-12-29T08:29:15;14.85;;;9.07;;
75885;SDS011;64561;44.018;10.144;2023-12-29T08:31:43;12.35;;;8.98;;
75885;SDS011;64561;44.018;10.144;2023-12-29T08:34:12;12.68;;;9.63;;
75885;SDS011;64561;44.018;10.144;2023-12-29T08:36:41;18.23;;;10.30;;
75885;SDS011;64561;44.018;10.144;2023-12-29T08:39:09;12.73;;;9.30;;
75885;SDS011;64561;44.018;10.144;2023-12-29T08:41:36;11.95;;;8.55;;
75885;SDS011;64561;44.018;10.144;2023-12-29T08:44:03;13.43;;;9.57;;
75885;SDS011;64561;44.018;10.144;2023-12-29T08:46:30;19.20;;;12.30;;
75885;SDS011;64561;44.018;10.144;2023-12-29T08:48:57;24.55;;;15.43;;
75885;SDS011;64561;44.018;10.144;2023-12-29T08:51:25;29.17;;;17.80;;
75885;SDS011;64561;44.018;10.144;2023-12-29T08:53:52;22.30;;;14.63;;
75885;SDS011;64561;44.018;10.144;2023-12-29T08:56:19;25.13;;;15.18;;
75885;SDS011;64561;44.018;10.144;2023-12-29T08:58:46;19.67;;;12.98;;
75885;SDS011;64561;44.018;10.144;2023-12-29T09:01:13;23.35;;;13.82;;
75885;SDS011;64561;44.018;10.144;2023-12-29T09:03:41;19.10;;;11.65;;
75885;SDS011;64561;44.018;10.144;2023-12-29T09:06:09;27.38;;;15.50;;
75885;SDS011;64561;44.018;10.144;2023-12-29T09:08:36;17.50;;;11.52;;
75885;SDS011;64561;44.018;10.144;2023-12-29T09:11:04;17.42;;;10.20;;
75885;SDS011;64561;44.018;10.144;2023-12-29T09:13:31;19.77;;;11.38;;
75885;SDS011;64561;44.018;10.144;2023-12-29T09:15:58;19.10;;;11.90;;
75885;SDS011;64561;44.018;10.144;2023-12-29T09:18:26;19.30;;;12.43;;
75885;SDS011;64561;44.018;10.144;2023-12-29T09:20:54;21.65;;;13.20;;
75885;SDS011;64561;44.018;10.144;2023-12-29T09:23:21;17.75;;;13.02;;
75885;SDS011;64561;44.018;10.144;2023-12-29T09:25:48;18.85;;;12.02;;
75885;SDS011;64561;44.018;10.144;2023-12-29T09:28:16;18.33;;;12.50;;
75885;SDS011;64561;44.018;10.144;2023-12-29T09:30:43;21.17;;;11.82;;
75885;SDS011;64561;44.018;10.144;2023-12-29T09:33:12;24.20;;;13.57;;
75885;SDS011;64561;44.018;10.144;2023-12-29T09:35:39;19.98;;;13.77;;
75885;SDS011;64561;44.018;10.144;2023-12-29T09:38:07;23.50;;;13.65;;
75885;SDS011;64561;44.018;10.144;2023-12-29T09:40:37;23.52;;;14.18;;
75885;SDS011;64561;44.018;10.144;2023-12-29T09:43:05;24.23;;;14.88;;
75885;SDS011;64561;44.018;10.144;2023-12-29T09:45:33;21.02;;;13.73;;
75885;SDS011;64561;44.018;10.144;2023-12-29T09:48:05;26.73;;;17.45;;
75885;SDS011;64561;44.018;10.144;2023-12-29T09:50:35;25.90;;;17.70;;
75885;SDS011;64561;44.018;10.144;2023-12-29T09:53:03;25.02;;;17.13;;
75885;SDS011;64561;44.018;10.144;2023-12-29T09:55:31;29.63;;;18.48;;
75885;SDS011;64561;44.018;10.144;2023-12-29T09:58:01;29.52;;;18.27;;
75885;SDS011;64561;44.018;10.144;2023-12-29T10:00:29;27.75;;;18.60;;
75885;SDS011;64561;44.018;10.144;2023-12-29T10:02:57;32.17;;;18.42;;
75885;SDS011;64561;44.018;10.144;2023-12-29T10:05:26;23.52;;;16.30;;
75885;SDS011;64561;44.018;10.144;2023-12-29T10:07:53;39.40;;;25.60;;
75885;SDS011;64561;44.018;10.144;2023-12-29T10:10:21;42.72;;;25.67;;
75885;SDS011;64561;44.018;10.144;2023-12-29T10:12:51;37.08;;;22.67;;
75885;SDS011;64561;44.018;10.144;2023-12-29T10:15:20;35.22;;;24.00;;
75885;SDS011;64561;44.018;10.144;2023-12-29T10:18:12;33.45;;;20.65;;
75885;SDS011;64561;44.018;10.144;2023-12-29T10:24:00;29.40;;;19.48;;
75885;SDS011;64561;44.018;10.144;2023-12-29T10:26:34;36.15;;;23.10;;
75885;SDS011;64561;44.018;10.144;2023-12-29T10:29:03;41.33;;;26.60;;
75885;SDS011;64561;44.018;10.144;2023-12-29T10:31:31;39.10;;;23.83;;
75885;SDS011;64561;44.018;10.144;2023-12-29T10:34:17;30.80;;;20.80;;
75885;SDS011;64561;44.018;10.144;2023-12-29T10:37:01;36.65;;;22.45;;
75885;SDS011;64561;44.018;10.144;2023-12-29T10:39:54;31.92;;;20.55;;
75885;SDS011;64561;44.018;10.144;2023-12-29T10:45:23;29.85;;;21.48;;
75885;SDS011;64561;44.018;10.144;2023-12-29T10:47:56;31.55;;;22.73;;
75885;SDS011;64561;44.018;10.144;2023-12-29T10:56:19;32.55;;;21.77;;
75885;SDS011;64561;44.018;10.144;2023-12-29T11:01:45;59.90;;;36.17;;
75885;SDS011;64561;44.018;10.144;2023-12-29T11:04:16;59.88;;;37.67;;
75885;SDS011;64561;44.018;10.144;2023-12-29T11:06:49;56.55;;;34.17;;
75885;SDS011;64561;44.018;10.144;2023-12-29T11:09:28;53.50;;;32.95;;
75885;SDS011;64561;44.018;10.144;2023-12-29T11:11:58;57.67;;;34.80;;
75885;SDS011;64561;44.018;10.144;2023-12-29T11:14:27;60.15;;;36.58;;
75885;SDS011;64561;44.018;10.144;2023-12-29T11:16:58;63.47;;;36.22;;
75885;SDS011;64561;44.018;10.144;2023-12-29T11:19:27;64.78;;;40.28;;
75885;SDS011;64561;44.018;10.144;2023-12-29T11:21:58;71.97;;;43.17;;
75885;SDS011;64561;44.018;10.144;2023-12-29T11:24:28;66.35;;;40.38;;
75885;SDS011;64561;44.018;10.144;2023-12-29T11:27:05;66.25;;;36.97;;
75885;SDS011;64561;44.018;10.144;2023-12-29T11:30:02;61.95;;;35.72;;
75885;SDS011;64561;44.018;10.144;2023-12-29T11:32:45;58.58;;;36.78;;
75885;SDS011;64561;44.018;10.144;2023-12-29T11:35:24;55.47;;;32.83;;
75885;SDS011;64561;44.018;10.144;2023-12-29T11:38:01;59.10;;;38.45;;
75885;SDS011;64561;44.018;10.144;2023-12-29T11:43:32;65.15;;;39.13;;
75885;SDS011;64561;44.018;10.144;2023-12-29T11:46:00;57.22;;;34.60;;
75885;SDS011;64561;44.018;10.144;2023-12-29T11:51:33;36.45;;;23.90;;
75885;SDS011;64561;44.018;10.144;2023-12-29T11:54:02;37.80;;;25.70;;
75885;SDS011;64561;44.018;10.144;2023-12-29T11:56:39;39.08;;;25.17;;
75885;SDS011;64561;44.018;10.144;2023-12-29T11:59:14;48.10;;;30.77;;
75885;SDS011;64561;44.018;10.144;2023-12-29T12:04:58;32.72;;;20.17;;
75885;SDS011;64561;44.018;10.144;2023-12-29T12:12:50;38.00;;;22.38;;
75885;SDS011;64561;44.018;10.144;2023-12-29T12:17:54;38.35;;;24.75;;
75885;SDS011;64561;44.018;10.144;2023-12-29T12:20:22;31.98;;;21.98;;
75885;SDS011;64561;44.018;10.144;2023-12-29T12:22:57;30.50;;;20.75;;
75885;SDS011;64561;44.018;10.144;2023-12-29T12:25:27;33.28;;;19.73;;
75885;SDS011;64561;44.018;10.144;2023-12-29T12:27:57;27.15;;;17.95;;
75885;SDS011;64561;44.018;10.144;2023-12-29T12:30:25;26.90;;;19.75;;
75885;SDS011;64561;44.018;10.144;2023-12-29T12:32:59;37.05;;;24.55;;
75885;SDS011;64561;44.018;10.144;2023-12-29T12:35:30;34.22;;;22.30;;
75885;SDS011;64561;44.018;10.144;2023-12-29T12:40:38;32.47;;;21.15;;
75885;SDS011;64561;44.018;10.144;2023-12-29T12:43:05;32.92;;;22.05;;
75885;SDS011;64561;44.018;10.144;2023-12-29T12:45:34;33.70;;;20.63;;
75885;SDS011;64561;44.018;10.144;2023-12-29T12:48:12;34.20;;;20.33;;
75885;SDS011;64561;44.018;10.144;2023-12-29T12:50:47;34.47;;;23.63;;
75885;SDS011;64561;44.018;10.144;2023-12-29T12:53:16;35.63;;;22.98;;
75885;SDS011;64561;44.018;10.144;2023-12-29T12:55:49;33.92;;;23.90;;
75885;SDS011;64561;44.018;10.144;2023-12-29T12:58:19;40.72;;;23.60;;
75885;SDS011;64561;44.018;10.144;2023-12-29T13:00:50;43.65;;;25.95;;
75885;SDS011;64561;44.018;10.144;2023-12-29T13:03:22;43.55;;;26.75;;
75885;SDS011;64561;44.018;10.144;2023-12-29T13:05:50;46.85;;;26.77;;
75885;SDS011;64561;44.018;10.144;2023-12-29T13:08:18;39.70;;;28.17;;
75885;SDS011;64561;44.018;10.144;2023-12-29T13:11:00;45.38;;;28.20;;
75885;SDS011;64561;44.018;10.144;2023-12-29T13:13:41;41.28;;;26.45;;
75885;SDS011;64561;44.018;10.144;2023-12-29T13:16:36;37.00;;;25.52;;
75885;SDS011;64561;44.018;10.144;2023-12-29T13:21:47;33.92;;;22.70;;
75885;SDS011;64561;44.018;10.144;2023-12-29T13:24:15;30.92;;;21.60;;
75885;SDS011;64561;44.018;10.144;2023-12-29T13:26:44;32.05;;;22.20;;
75885;SDS011;64561;44.018;10.144;2023-12-29T13:29:15;30.42;;;21.20;;
75885;SDS011;64561;44.018;10.144;2023-12-29T13:31:42;37.58;;;24.52;;
75885;SDS011;64561;44.018;10.144;2023-12-29T13:34:14;29.13;;;19.92;;
75885;SDS011;64561;44.018;10.144;2023-12-29T13:39:36;32.13;;;20.33;;
75885;SDS011;64561;44.018;10.144;2023-12-29T13:42:09;29.98;;;19.08;;
75885;SDS011;64561;44.018;10.144;2023-12-29T13:44:39;31.50;;;20.23;;
75885;SDS011;64561;44.018;10.144;2023-12-29T13:47:09;34.97;;;23.48;;
75885;SDS011;64561;44.018;10.144;2023-12-29T13:49:40;37.67;;;22.40;;
75885;SDS011;64561;44.018;10.144;2023-12-29T13:52:08;36.60;;;21.27;;
75885;SDS011;64561;44.018;10.144;2023-12-29T13:54:42;30.23;;;21.92;;
75885;SDS011;64561;44.018;10.144;2023-12-29T13:57:10;30.10;;;19.75;;
75885;SDS011;64561;44.018;10.144;2023-12-29T13:59:38;32.72;;;19.58;;
75885;SDS011;64561;44.018;10.144;2023-12-29T14:02:40;28.90;;;20.10;;
75885;SDS011;64561;44.018;10.144;2023-12-29T14:05:19;30.55;;;18.23;;
75885;SDS011;64561;44.018;10.144;2023-12-29T14:10:34;27.73;;;17.23;;
75885;SDS011;64561;44.018;10.144;2023-12-29T14:13:09;27.80;;;18.10;;
75885;SDS011;64561;44.018;10.144;2023-12-29T14:15:40;25.52;;;17.42;;
75885;SDS011;64561;44.018;10.144;2023-12-29T14:20:39;29.17;;;19.23;;
75885;SDS011;64561;44.018;10.144;2023-12-29T14:23:10;28.98;;;19.67;;
75885;SDS011;64561;44.018;10.144;2023-12-29T14:25:37;31.42;;;19.42;;
75885;SDS011;64561;44.018;10.144;2023-12-29T14:28:15;26.08;;;18.17;;
75885;SDS011;64561;44.018;10.144;2023-12-29T14:30:44;30.33;;;17.75;;
75885;SDS011;64561;44.018;10.144;2023-12-29T14:33:11;34.25;;;19.58;;
75885;SDS011;64561;44.018;10.144;2023-12-29T14:35:39;31.75;;;22.13;;
75885;SDS011;64561;44.018;10.144;2023-12-29T14:38:06;35.65;;;24.17;;
75885;SDS011;64561;44.018;10.144;2023-12-29T14:40:34;40.53;;;25.67;;
75885;SDS011;64561;44.018;10.144;2023-12-29T14:43:01;43.38;;;27.42;;
75885;SDS011;64561;44.018;10.144;2023-12-29T14:45:30;42.25;;;26.48;;
75885;SDS011;64561;44.018;10.144;2023-12-29T14:47:58;38.88;;;24.60;;
75885;SDS011;64561;44.018;10.144;2023-12-29T14:50:27;33.70;;;22.23;;
75885;SDS011;64561;44.018;10.144;2023-12-29T14:52:54;34.17;;;22.10;;
75885;SDS011;64561;44.018;10.144;2023-12-29T14:55:22;33.38;;;22.40;;
75885;SDS011;64561;44.018;10.144;2023-12-29T14:57:51;31.25;;;22.48;;
75885;SDS011;64561;44.018;10.144;2023-12-29T15:00:18;31.52;;;19.83;;
75885;SDS011;64561;44.018;10.144;2023-12-29T15:02:46;25.75;;;15.55;;
75885;SDS011;64561;44.018;10.144;2023-12-29T15:05:13;21.58;;;14.05;;
75885;SDS011;64561;44.018;10.144;2023-12-29T15:07:40;24.85;;;15.90;;
75885;SDS011;64561;44.018;10.144;2023-12-29T15:10:07;31.48;;;22.75;;
75885;SDS011;64561;44.018;10.144;2023-12-29T15:12:35;35.97;;;23.15;;
75885;SDS011;64561;44.018;10.144;2023-12-29T15:15:02;44.90;;;27.50;;
75885;SDS011;64561;44.018;10.144;2023-12-29T15:17:30;37.85;;;23.50;;
75885;SDS011;64561;44.018;10.144;2023-12-29T15:19:58;34.22;;;20.45;;
75885;SDS011;64561;44.018;10.144;2023-12-29T15:22:25;25.73;;;16.58;;